Flight Track Log - Related Links

Times and Time Zones

All times are in EDT time to prevent confusion due to time zone crossing. See the SWA2182 flight status page for this flight to view local times or setup timezone preferences in your user account.

Time Position Orientation Groundspeed Altitude Reporting Facility
EDT Latitude Longitude Course Direction KTS MPH feet Rate Location/Type
Fri 09:10:18 AM 38.7333 -121.5667 134° Southeast 191 220 2,400  Level Northern Cal TRACON
Fri 09:12:03 AM 38.6558 -121.4719 136° Southeast 248 285 6,100 2,800 Climbing Oakland Center
Fri 09:13:03 AM 38.6147 -121.3911 123° Southeast 264 304 10,100 3,200 Climbing Oakland Center
Fri 09:14:03 AM 38.5683 -121.3014 123° Southeast 278 320 12,500 2,826 Climbing Oakland Center
Fri 09:15:00 AM 38.2511 -121.2343 134° Southeast  Level Estimated
Fri 09:15:04 AM 38.5064 -121.1900 125° Southeast 342 394 15,800  Level Oakland Center
Fri 09:16:04 AM 38.4411 -121.0692 125° Southeast 381 438 19,000 3,074 Climbing Oakland Center
Fri 09:17:05 AM 38.3792 -120.9539 124° Southeast 393 452 22,000 2,727 Climbing Oakland Center
Fri 09:18:05 AM 38.3147 -120.8336 124° Southeast 407 468 24,500 2,231 Climbing Oakland Center
Fri 09:19:06 AM 38.2167 -120.7483 146° Southeast 434 499 26,500 1,983 Climbing Oakland Center
Fri 09:20:06 AM 38.1011 -120.6833 156° South 450 518 28,500 1,934 Climbing Oakland Center
Fri 09:21:07 AM 37.9850 -120.6164 156° South 455 524 30,400 1,884 Climbing Oakland Center
Fri 09:22:07 AM 37.8656 -120.5489 156° South 466 536 32,300 1,934 Climbing Oakland Center
Fri 09:23:08 AM 37.7483 -120.4822 156° South 462 532 34,300 1,934 Climbing Oakland Center
Fri 09:24:08 AM 37.6308 -120.4167 156° South 459 528 36,200 1,537 Climbing Oakland Center
Fri 09:25:09 AM 37.5167 -120.3511 156° South 453 521 37,400 992 Climbing Oakland Center
Fri 09:26:09 AM 37.3992 -120.2850 156° South 459 528 38,200 793 Climbing Oakland Center
Fri 09:27:10 AM 37.2778 -120.2222 158° South 466 536 39,000 397 Climbing Oakland Center
Fri 09:28:10 AM 37.1603 -120.1569 156° South 455 524 39,000  Level Oakland Center
Fri 09:29:11 AM 37.0442 -120.0922 156° South 448 516 39,000  Level Oakland Center
Fri 09:30:12 AM 36.9303 -120.0272 155° Southeast 448 516 39,000  Level Oakland Center
Fri 09:31:12 AM 36.8133 -119.9617 156° South 456 525 39,000  Level Oakland Center
Fri 09:32:13 AM 36.6992 -119.8981 156° South 451 519 39,000  Level Oakland Center
Fri 09:33:14 AM 36.5850 -119.8347 156° South 449 517 39,000  Level Oakland Center
Fri 09:34:14 AM 36.4706 -119.7717 156° South 448 516 39,000  Level Oakland Center
Fri 09:35:15 AM 36.3561 -119.7086 156° South 449 517 39,000  Level Oakland Center
Fri 09:36:16 AM 36.2417 -119.6461 156° South 449 517 39,000  Level Oakland Center
Fri 09:37:16 AM 36.1264 -119.5839 156° South 451 519 39,000  Level Oakland Center
Fri 09:38:18 AM 36.0117 -119.5225 157° South 449 517 39,000  Level Oakland Center
Fri 09:39:18 AM 35.8992 -119.4639 157° South 441 507 39,000  Level Oakland Center
Fri 09:40:19 AM 35.7844 -119.4022 156° South 444 511 39,000  Level Oakland Center
Fri 09:41:20 AM 35.6675 -119.3383 156° South 452 520 39,000  Level Oakland Center
Fri 09:42:20 AM 35.5264 -119.2647 157° South 456 525 39,000  Level Oakland Center
Fri 09:43:21 AM 35.4103 -119.2028 156° South 455 524 39,000  Level Oakland Center
Fri 09:44:22 AM 35.2961 -119.1422 157° South 448 516 39,000  Level Oakland Center
Fri 09:45:23 AM 35.1806 -119.0814 157° South 449 517 39,000  Level Oakland Center
Fri 09:46:24 AM 35.0664 -119.0233 157° South 445 512 39,000  Level Oakland Center
Fri 09:47:25 AM 34.9536 -118.9644 157° South 441 507 39,000  Level Oakland Center
Fri 09:48:26 AM 34.8456 -118.9036 155° Southeast 432 497 39,000  Level Oakland Center
Fri 09:49:35 AM 34.7244 -118.8406 157° South 439 505 39,000  Level Los Angeles Center
Fri 09:50:37 AM 34.6108 -118.7819 157° South 442 509 39,000  Level Los Angeles Center
Fri 09:51:38 AM 34.4761 -118.7128 157° South 440 506 39,000  Level Los Angeles Center
Fri 09:52:40 AM 34.3639 -118.6544 157° South 439 505 39,000  Level Los Angeles Center
Fri 09:53:41 AM 34.2514 -118.5978 157° South 439 505 39,000 -195 Level Los Angeles Center
Fri 09:54:43 AM 34.1386 -118.5389 157° South 440 506 38,600 -683 Descending Los Angeles Center
Fri 09:55:44 AM 34.0267 -118.4808 157° South 438 504 37,600 -1,122 Descending Los Angeles Center
Fri 09:56:46 AM 33.9189 -118.4122 152° Southeast 443 510 36,300 -1,951 Descending Los Angeles Center
Fri 09:57:47 AM 33.8300 -118.3042 135° Southeast 449 517 33,600 -2,780 Descending Los Angeles Center
Fri 09:58:49 AM 33.7422 -118.1869 132° Southeast 451 519 30,600 -2,585 Descending Los Angeles Center
Fri 09:59:50 AM 33.6556 -118.0778 134° Southeast 449 517 28,300 -2,195 Descending Los Angeles Center
Fri 10:00:52 AM 33.5742 -117.9750 134° Southeast 428 493 26,100 -2,098 Descending Los Angeles Center
Fri 10:01:53 AM 33.4961 -117.8756 133° Southeast 413 475 24,000 -2,216 Descending Los Angeles Center
Fri 10:02:43 AM 33.4167 -117.7833 136° Southeast 395 455 22,000 -2,152 Descending Southern California TRACON
Fri 10:03:25 AM 33.3667 -117.7167 132° Southeast 385 443 20,700 -1,890 Descending Southern California TRACON
Fri 10:03:56 AM 33.3336 -117.6678 129° Southeast 384 442 19,700 -1,871 Descending Los Angeles Center
Fri 10:04:58 AM 33.2625 -117.5811 134° Southeast 369 425 17,800 -2,157 Descending Los Angeles Center
Fri 10:05:25 AM 33.2167 -117.5333 139° Southeast 375 432 16,500 -2,129 Descending Southern California TRACON
Fri 10:06:31 AM 33.1333 -117.4667 146° Southeast 361 415 14,500 -1,750 Descending Southern California TRACON
Fri 10:07:01 AM 33.1008 -117.4394 145° Southeast 358 412 13,700 -1,761 Descending Los Angeles Center
Fri 10:08:03 AM 33.0217 -117.3769 146° Southeast 347 399 11,800 -1,780 Descending Los Angeles Center
Fri 10:08:32 AM 32.9667 -117.3333 146° Southeast 323 372 11,000 -1,326 Descending Southern California TRACON
Fri 10:09:38 AM 32.9000 -117.2833 148° Southeast 298 343 9,700 -1,286 Descending Southern California TRACON
Fri 10:10:38 AM 32.8333 -117.2333 148° Southeast 294 338 8,300 -1,467 Descending Southern California TRACON
Fri 10:11:08 AM 32.8067 -117.1914 127° Southeast 290 334 7,500 -1,253 Descending Los Angeles Center
Fri 10:12:09 AM 32.7783 -117.1144 114° Southeast 284 327 6,400 -835 Descending Los Angeles Center
Fri 10:12:27 AM 32.7667 -117.0833 114° Southeast 253 291 6,400 -1,214 Level Southern California TRACON
Fri 10:13:33 AM 32.7333 -117.0167 121° Southeast 209 241 4,700 -1,619 Descending Southern California TRACON
Fri 10:14:33 AM 32.7000 -117.0500 220° Southwest 201 231 3,000 -1,476 Descending Southern California TRACON
Fri 10:15:39 AM 32.7167 -117.1167 287° West 154 177 1,600 -1,223 Descending Southern California TRACON
Fri 10:16:16 AM 32.7211 -117.1403 283° West 154 177 900 -788 Descending Los Angeles Center
Fri 10:17:18 AM 32.7303 -117.1775 286° West 144 166 300 -581 Descending Los Angeles Center

Login

Don't have an account? Register now (free) for customized features, flight alerts, and more!